Time;durP1;ratioP1;P1;durP2;ratioP2;P2;SDS_P1;SDS_P2;PMS_P1;PMS_P2;Temp;Humidity;BMP_temperature;BMP_pressure;BME280_temperature;BME280_humidity;BME280_pressure;Samples;Min_cycle;Max_cycle;Signal;HPM_P1;HPM_P2
2021/12/06 00:01:13;;;;;;;10.07;2.55;;;;;;;7.33;61.16;100571.75;5012060;28;20114;-96
2021/12/06 00:03:42;;;;;;;9.00;2.50;;;;;;;7.37;61.78;100570.66;5012483;28;20010;-96
2021/12/06 00:06:10;;;;;;;8.82;2.30;;;;;;;7.42;62.54;100570.41;5012319;28;20034;-96
2021/12/06 00:08:35;;;;;;;6.03;2.20;;;;;;;7.54;62.02;100580.22;5000334;28;20543;-96
2021/12/06 00:11:07;;;;;;;11.75;2.55;;;;;;;7.58;61.90;100576.50;4998080;28;20026;-96
2021/12/06 00:13:35;;;;;;;4.00;2.15;;;;;;;7.51;62.22;100568.16;4994691;28;20033;-95
2021/12/06 00:16:06;;;;;;;10.43;2.33;;;;;;;7.45;61.45;100568.50;5001708;28;20034;-96
2021/12/06 00:18:32;;;;;;;7.10;2.13;;;;;;;7.35;61.58;100559.44;4998882;28;20108;-96
2021/12/06 00:20:57;;;;;;;9.70;2.10;;;;;;;7.42;61.80;100549.50;5009081;28;20038;-96
2021/12/06 00:23:23;;;;;;;2.72;1.92;;;;;;;7.44;61.56;100556.34;5004437;28;20039;-96
2021/12/06 00:28:24;;;;;;;9.50;2.50;;;;;;;7.43;61.64;100551.22;5519158;22;20029;-96
2021/12/06 00:33:26;;;;;;;12.07;2.13;;;;;;;7.50;61.58;100566.50;5485424;22;20046;-96
2021/12/06 00:35:52;;;;;;;5.60;2.45;;;;;;;7.54;61.69;100565.41;4982488;28;20026;-96
2021/12/06 00:38:17;;;;;;;4.38;1.55;;;;;;;7.51;61.81;100562.94;4989092;28;20057;-96
2021/12/06 00:40:46;;;;;;;6.00;2.22;;;;;;;7.57;62.27;100560.94;4981983;28;20070;-96
2021/12/06 00:43:12;;;;;;;6.22;2.22;;;;;;;7.61;61.89;100549.41;4958063;28;20576;-96
2021/12/06 00:45:40;;;;;;;7.88;2.40;;;;;;;7.60;62.25;100539.84;4966688;28;20078;-96
2021/12/06 00:48:05;;;;;;;5.20;1.83;;;;;;;7.61;62.37;100537.16;4982279;28;20035;-96
2021/12/06 00:50:36;;;;;;;7.65;2.45;;;;;;;7.71;61.94;100534.91;4982539;28;20072;-95
2021/12/06 00:53:03;;;;;;;10.60;2.60;;;;;;;7.72;61.78;100536.56;4984877;28;20030;-96
2021/12/06 00:55:29;;;;;;;6.00;1.70;;;;;;;7.73;61.61;100538.28;4983197;28;20027;-94
2021/12/06 00:57:55;;;;;;;4.88;2.08;;;;;;;7.70;62.11;100543.66;4980671;28;20041;-95
2021/12/06 01:00:29;;;;;;;3.47;1.65;;;;;;;7.77;62.09;100539.78;4985415;28;20054;-94
2021/12/06 01:02:55;;;;;;;6.43;2.75;;;;;;;7.86;62.37;100536.69;4981828;28;20477;-96
2021/12/06 01:05:23;;;;;;;7.05;2.10;;;;;;;7.87;61.82;100540.97;4977674;28;20065;-95
2021/12/06 01:07:50;;;;;;;7.20;2.97;;;;;;;7.88;61.99;100527.00;4968307;28;20022;-95
2021/12/06 01:10:16;;;;;;;6.85;2.03;;;;;;;7.91;62.00;100529.41;4974517;28;20027;-95
2021/12/06 01:12:41;;;;;;;10.57;3.65;;;;;;;7.90;61.42;100543.44;4979157;28;20501;-95
2021/12/06 01:15:07;;;;;;;32.78;21.35;;;;;;;7.78;62.53;100541.50;4972635;28;20042;-95
2021/12/06 01:17:34;;;;;;;12.57;6.75;;;;;;;7.85;62.25;100548.06;4965033;28;20128;-95
2021/12/06 01:20:02;;;;;;;14.90;4.53;;;;;;;7.85;61.81;100550.69;4970959;28;20034;-95
2021/12/06 01:22:38;;;;;;;6.78;3.00;;;;;;;7.89;62.36;100546.97;4976671;28;20378;-95
2021/12/06 01:25:15;;;;;;;4.75;1.95;;;;;;;7.91;61.82;100539.88;4976338;28;20027;-94
2021/12/06 01:41:09;;;;;;;6.82;2.40;;;;;;;7.80;61.62;100512.63;4978389;28;20046;-95
2021/12/06 01:43:34;;;;;;;4.88;2.05;;;;;;;7.63;60.76;100510.97;4973249;28;20042;-95
2021/12/06 01:46:00;;;;;;;7.43;2.33;;;;;;;7.65;61.88;100501.25;4969359;28;20094;-95
2021/12/06 01:48:25;;;;;;;6.20;2.15;;;;;;;7.59;61.26;100504.22;4976991;28;20030;-95
2021/12/06 01:50:51;;;;;;;7.90;1.98;;;;;;;7.54;61.84;100499.22;4979098;28;20087;-94
2021/12/06 01:53:17;;;;;;;8.07;2.13;;;;;;;7.49;61.26;100503.88;4979625;28;20114;-95
2021/12/06 01:55:42;;;;;;;7.35;2.05;;;;;;;7.41;61.34;100496.44;4980909;28;20054;-96
2021/12/06 01:58:09;;;;;;;7.20;2.13;;;;;;;7.38;61.54;100496.59;4980185;28;20022;-94
2021/12/06 02:00:40;;;;;;;4.93;1.70;;;;;;;7.39;61.73;100497.44;4980473;28;20096;-95
2021/12/06 02:03:07;;;;;;;6.55;1.40;;;;;;;7.38;61.78;100498.34;4976546;28;20117;-95
2021/12/06 02:05:33;;;;;;;5.28;1.60;;;;;;;7.33;61.82;100506.44;4978742;28;20031;-95
2021/12/06 02:07:59;;;;;;;8.43;1.60;;;;;;;7.33;61.99;100509.06;4978464;28;20110;-94
2021/12/06 02:10:25;;;;;;;5.18;1.88;;;;;;;7.37;61.62;100507.97;4981614;28;20046;-95
2021/12/06 02:12:53;;;;;;;6.57;1.45;;;;;;;7.37;62.54;100484.47;4984431;28;20031;-95
2021/12/06 02:18:02;;;;;;;6.72;2.03;;;;;;;7.43;62.03;100491.13;4986244;28;20092;-94
2021/12/06 02:20:29;;;;;;;6.85;1.75;;;;;;;7.35;62.17;100489.75;4991783;28;20039;-94
2021/12/06 02:22:55;;;;;;;4.50;1.75;;;;;;;7.36;62.43;100498.44;4991190;28;20026;-94
2021/12/06 02:25:21;;;;;;;9.23;1.50;;;;;;;7.36;62.31;100495.81;4990586;28;20034;-95
2021/12/06 02:27:50;;;;;;;2.10;1.33;;;;;;;7.27;61.99;100478.03;4988851;28;20121;-94
2021/12/06 02:30:17;;;;;;;4.78;1.95;;;;;;;7.22;62.42;100474.81;4986930;28;20027;-95
2021/12/06 02:32:43;;;;;;;8.88;1.63;;;;;;;7.30;62.28;100481.31;4991300;28;20054;-95
2021/12/06 02:35:13;;;;;;;6.88;1.30;;;;;;;7.25;61.73;100474.66;4983667;28;20027;-94
2021/12/06 02:37:39;;;;;;;5.40;1.60;;;;;;;7.24;62.59;100463.34;4993235;28;20031;-94
2021/12/06 02:40:13;;;;;;;4.70;1.63;;;;;;;7.22;62.90;100467.81;4992541;28;20034;-94
2021/12/06 02:42:39;;;;;;;5.82;1.73;;;;;;;7.23;62.55;100473.91;4994343;28;20035;-95
2021/12/06 02:45:08;;;;;;;7.00;1.65;;;;;;;7.14;62.08;100470.84;4982078;28;20058;-95
2021/12/06 02:47:33;;;;;;;5.97;1.95;;;;;;;7.13;62.25;100461.31;4984517;28;20137;-96
2021/12/06 02:50:05;;;;;;;7.32;1.52;;;;;;;6.99;62.02;100457.75;4983181;28;20493;-95
2021/12/06 02:52:30;;;;;;;6.07;1.65;;;;;;;7.08;62.97;100471.16;4964540;28;20030;-94
2021/12/06 02:54:58;;;;;;;3.75;1.40;;;;;;;7.03;63.42;100464.47;4981972;28;20066;-94
2021/12/06 02:57:33;;;;;;;5.05;1.60;;;;;;;7.12;62.93;100462.25;4982836;28;20030;-96
2021/12/06 03:00:00;;;;;;;5.50;1.45;;;;;;;7.15;63.04;100458.66;4963887;29;20466;-96
2021/12/06 03:02:30;;;;;;;6.45;1.80;;;;;;;7.20;63.19;100455.78;4980790;28;20477;-96
2021/12/06 03:04:56;;;;;;;5.57;2.10;;;;;;;7.19;63.02;100448.84;4968142;28;20039;-95
2021/12/06 03:07:24;;;;;;;2.83;1.70;;;;;;;7.18;62.35;100450.63;4983707;28;20678;-96
2021/12/06 03:09:53;;;;;;;3.35;1.65;;;;;;;7.20;62.74;100453.16;4966104;28;20026;-95
2021/12/06 03:12:21;;;;;;;2.95;1.52;;;;;;;7.20;62.33;100445.34;4994819;28;20086;-96
2021/12/06 03:14:50;;;;;;;4.15;1.95;;;;;;;7.13;62.37;100430.00;4995974;28;20022;-95
2021/12/06 03:17:19;;;;;;;10.10;2.22;;;;;;;7.08;61.67;100431.16;4995960;28;20047;-96
2021/12/06 03:19:46;;;;;;;4.25;1.52;;;;;;;7.06;62.19;100422.56;4996099;28;20046;-96
2021/12/06 03:22:14;;;;;;;5.28;1.70;;;;;;;7.06;62.03;100420.78;4996022;28;20007;-95
2021/12/06 03:24:41;;;;;;;4.22;1.40;;;;;;;7.06;62.21;100418.19;4995139;28;20031;-95
2021/12/06 03:27:06;;;;;;;6.50;2.05;;;;;;;7.00;62.43;100409.84;4991605;28;20117;-96
2021/12/06 03:29:32;;;;;;;5.05;1.60;;;;;;;6.90;62.75;100397.25;4981352;28;20051;-95
2021/12/06 03:31:58;;;;;;;5.03;1.70;;;;;;;6.93;63.11;100393.63;4982336;28;20113;-96
2021/12/06 03:34:26;;;;;;;5.45;1.80;;;;;;;6.87;62.81;100386.13;4989669;28;20038;-95
2021/12/06 03:36:55;;;;;;;7.35;1.83;;;;;;;6.84;63.13;100381.94;4972071;28;20031;-95
2021/12/06 03:39:24;;;;;;;5.65;2.08;;;;;;;6.89;63.17;100382.53;4992150;28;20031;-95
2021/12/06 03:41:52;;;;;;;8.20;2.17;;;;;;;6.87;63.79;100383.53;4989428;28;20027;-95
2021/12/06 03:44:20;;;;;;;5.65;2.17;;;;;;;6.88;63.66;100378.22;4990539;28;20038;-96
2021/12/06 03:46:47;;;;;;;4.65;1.80;;;;;;;6.93;64.15;100364.94;4991864;28;20030;-95
2021/12/06 03:49:15;;;;;;;5.85;1.90;;;;;;;6.98;63.97;100362.94;4990358;28;20550;-96
2021/12/06 03:51:45;;;;;;;4.55;1.90;;;;;;;7.05;64.19;100373.88;4991034;28;20051;-95
2021/12/06 03:54:13;;;;;;;3.42;1.55;;;;;;;7.14;64.37;100379.44;4992161;28;20076;-96
2021/12/06 03:56:40;;;;;;;5.13;1.67;;;;;;;7.18;63.93;100380.13;4987281;28;20039;-94
2021/12/06 03:59:06;;;;;;;3.97;1.73;;;;;;;7.24;64.00;100376.34;4957544;29;20067;-95
2021/12/06 04:01:32;;;;;;;2.72;1.38;;;;;;;7.31;64.27;100370.69;4975774;28;20038;-95
2021/12/06 04:03:59;;;;;;;7.35;1.27;;;;;;;7.34;64.26;100372.28;4986917;28;20094;-96
2021/12/06 04:06:25;;;;;;;8.55;2.13;;;;;;;7.41;64.41;100376.25;4987282;28;20031;-95
2021/12/06 04:08:50;;;;;;;3.03;1.30;;;;;;;7.46;64.32;100381.22;4986127;28;20082;-95
2021/12/06 04:11:16;;;;;;;4.45;1.42;;;;;;;7.40;64.10;100379.78;4983837;28;20011;-96
2021/12/06 04:13:42;;;;;;;6.95;1.63;;;;;;;7.45;64.26;100369.94;4987935;28;20034;-95
2021/12/06 04:16:08;;;;;;;4.65;1.58;;;;;;;7.49;64.26;100368.84;4989164;28;20541;-95
2021/12/06 04:18:34;;;;;;;5.78;1.50;;;;;;;7.50;63.89;100370.53;4992562;28;20046;-96
2021/12/06 04:20:59;;;;;;;7.03;2.05;;;;;;;7.52;63.50;100368.69;4990508;28;20038;-95
2021/12/06 04:23:25;;;;;;;6.40;1.92;;;;;;;7.58;63.77;100356.19;4985384;28;20034;-95
2021/12/06 04:25:50;;;;;;;5.78;1.80;;;;;;;7.60;64.11;100349.94;4985949;28;20026;-96
2021/12/06 04:28:19;;;;;;;4.80;1.42;;;;;;;7.66;63.61;100348.75;4984533;28;20075;-95
2021/12/06 04:30:46;;;;;;;5.07;1.45;;;;;;;7.66;64.30;100356.59;4986731;28;20519;-95
2021/12/06 04:33:11;;;;;;;4.45;1.70;;;;;;;7.70;63.67;100355.47;4995043;28;20035;-96
2021/12/06 04:35:38;;;;;;;4.53;1.60;;;;;;;7.74;64.39;100370.94;4995119;28;20034;-96
2021/12/06 04:38:04;;;;;;;5.60;2.95;;;;;;;7.74;63.98;100372.66;4993542;28;20113;-96
2021/12/06 04:40:30;;;;;;;4.25;1.63;;;;;;;7.71;63.55;100373.69;4975099;28;20034;-96
2021/12/06 04:42:56;;;;;;;5.07;1.85;;;;;;;7.74;63.66;100364.84;4984240;28;20050;-96
2021/12/06 04:45:22;;;;;;;3.13;2.30;;;;;;;7.81;64.10;100342.66;4982066;28;20046;-95
2021/12/06 04:47:50;;;;;;;11.07;2.10;;;;;;;7.85;63.56;100333.69;4979075;28;20027;-96
2021/12/06 04:50:18;;;;;;;7.28;1.77;;;;;;;7.93;63.70;100334.09;4964731;29;20047;-95
2021/12/06 04:52:45;;;;;;;3.45;1.40;;;;;;;7.97;63.75;100328.69;4982587;28;20086;-96
2021/12/06 04:55:22;;;;;;;6.70;1.92;;;;;;;7.94;64.16;100330.56;4989360;28;20029;-94
2021/12/06 04:57:48;;;;;;;4.40;1.55;;;;;;;7.97;64.06;100336.53;4985070;28;20038;-96
2021/12/06 05:00:16;;;;;;;8.63;2.58;;;;;;;7.95;63.84;100324.38;4990823;28;20031;-95
2021/12/06 05:02:44;;;;;;;4.32;1.70;;;;;;;7.94;63.82;100322.72;4993099;28;20031;-95
2021/12/06 05:05:18;;;;;;;4.28;1.58;;;;;;;7.97;63.44;100315.63;4994104;28;20034;-95
2021/12/06 05:07:49;;;;;;;7.38;1.60;;;;;;;8.09;63.39;100305.28;4994014;28;20047;-95
2021/12/06 05:10:16;;;;;;;2.92;1.08;;;;;;;8.27;62.66;100298.13;4991946;28;20018;-96
2021/12/06 05:12:42;;;;;;;5.68;1.60;;;;;;;8.36;62.43;100295.88;4983783;28;20136;-95
2021/12/06 05:15:09;;;;;;;6.18;1.88;;;;;;;8.44;61.90;100298.91;4980193;28;20057;-96
2021/12/06 05:17:34;;;;;;;3.58;1.52;;;;;;;8.48;62.15;100289.94;4988466;28;20026;-95
2021/12/06 05:20:00;;;;;;;5.55;1.73;;;;;;;8.54;61.87;100293.00;4989223;28;20027;-96
2021/12/06 05:22:28;;;;;;;4.40;1.58;;;;;;;8.62;62.25;100281.25;4978752;28;20483;-96
2021/12/06 05:24:54;;;;;;;6.63;1.85;;;;;;;8.63;61.88;100273.31;4980804;28;20030;-95
2021/12/06 05:27:26;;;;;;;3.38;1.30;;;;;;;8.66;62.15;100262.63;4990100;28;20031;-95
2021/12/06 05:29:56;;;;;;;2.53;1.17;;;;;;;8.68;62.15;100254.69;4979311;28;20034;-95
2021/12/06 05:32:21;;;;;;;3.22;1.38;;;;;;;8.74;62.39;100260.38;4984783;28;20090;-96
2021/12/06 05:34:49;;;;;;;7.25;1.42;;;;;;;8.71;62.08;100250.09;4983349;28;20038;-96
2021/12/06 05:37:15;;;;;;;3.55;1.65;;;;;;;8.72;62.13;100248.31;4968063;29;20043;-95
2021/12/06 05:39:40;;;;;;;3.00;1.48;;;;;;;8.69;62.19;100236.28;4991640;28;20058;-96
2021/12/06 05:42:11;;;;;;;6.43;1.80;;;;;;;8.74;61.95;100238.59;4994093;28;20034;-95
2021/12/06 05:44:38;;;;;;;3.08;1.40;;;;;;;8.72;61.63;100236.06;4992293;28;20034;-96
2021/12/06 05:47:04;;;;;;;2.38;1.33;;;;;;;8.80;62.03;100232.13;5001538;28;20087;-95
2021/12/06 05:49:29;;;;;;;4.93;1.73;;;;;;;8.81;62.08;100224.19;4993417;28;20010;-96
2021/12/06 05:51:55;;;;;;;3.42;1.33;;;;;;;8.86;62.30;100223.88;4993345;28;20042;-95
2021/12/06 05:54:21;;;;;;;2.55;1.17;;;;;;;8.86;61.88;100210.78;4993359;28;20051;-96
2021/12/06 05:56:48;;;;;;;4.10;1.60;;;;;;;8.89;62.16;100206.22;4979203;28;20035;-95
2021/12/06 05:59:14;;;;;;;6.28;1.33;;;;;;;8.87;61.77;100196.78;4995931;28;20053;-95
2021/12/06 06:01:39;;;;;;;3.70;1.70;;;;;;;8.94;61.93;100198.03;4978546;29;20055;-96
2021/12/06 06:04:05;;;;;;;3.30;1.25;;;;;;;8.95;61.45;100194.50;5005485;28;20034;-95
2021/12/06 06:06:33;;;;;;;4.13;1.67;;;;;;;8.92;61.69;100181.59;5018302;28;20029;-96
2021/12/06 06:08:59;;;;;;;5.57;2.15;;;;;;;8.98;61.63;100185.59;5006026;28;20087;-96
2021/12/06 06:11:25;;;;;;;4.35;1.63;;;;;;;8.95;61.58;100198.91;4968350;28;20035;-96
2021/12/06 06:13:51;;;;;;;6.22;1.52;;;;;;;9.01;61.63;100196.72;4990084;28;20037;-96
2021/12/06 06:16:19;;;;;;;6.10;1.80;;;;;;;9.13;61.19;100192.47;4998222;28;20031;-96
2021/12/06 06:18:47;;;;;;;6.30;1.60;;;;;;;9.09;61.52;100197.06;4998589;28;20046;-95
2021/12/06 06:21:12;;;;;;;3.28;1.52;;;;;;;9.15;61.46;100189.75;4998538;28;20018;-96
2021/12/06 06:23:38;;;;;;;5.00;1.88;;;;;;;9.21;60.63;100187.56;4990463;28;20039;-96
2021/12/06 06:26:03;;;;;;;4.82;1.88;;;;;;;9.29;60.65;100184.44;4993236;28;20031;-95
2021/12/06 06:28:28;;;;;;;5.47;1.50;;;;;;;9.34;60.50;100174.50;4991588;28;20054;-95
2021/12/06 06:30:54;;;;;;;8.43;1.85;;;;;;;9.35;60.82;100167.47;4997510;28;20011;-94
2021/12/06 06:33:19;;;;;;;4.75;1.48;;;;;;;9.33;59.99;100172.81;4996218;28;20023;-95
2021/12/06 06:35:45;;;;;;;6.15;1.60;;;;;;;9.33;60.65;100178.06;4994849;28;20023;-95
2021/12/06 06:38:10;;;;;;;5.97;1.63;;;;;;;9.32;60.01;100161.50;4993496;28;20038;-95
2021/12/06 06:40:36;;;;;;;4.78;1.55;;;;;;;9.37;60.73;100152.50;4991105;28;20090;-96
2021/12/06 06:43:02;;;;;;;6.38;1.77;;;;;;;9.52;59.62;100136.56;4994993;28;20031;-96
2021/12/06 06:45:28;;;;;;;6.18;1.98;;;;;;;9.40;59.70;100136.53;4978568;28;20042;-95
2021/12/06 06:47:53;;;;;;;2.95;1.55;;;;;;;9.42;60.20;100130.28;4987501;28;20019;-96
2021/12/06 06:50:20;;;;;;;7.70;1.67;;;;;;;9.42;59.82;100127.66;4988630;28;20033;-95
2021/12/06 06:52:46;;;;;;;2.75;1.75;;;;;;;9.46;60.35;100117.81;4989264;28;20043;-95
2021/12/06 06:55:13;;;;;;;4.47;1.92;;;;;;;9.51;59.60;100113.91;4989099;28;20025;-95
2021/12/06 06:57:39;;;;;;;3.63;1.30;;;;;;;9.55;59.47;100104.06;4985365;28;20034;-95
2021/12/06 07:00:11;;;;;;;6.90;2.95;;;;;;;9.51;59.83;100095.56;4987695;28;20034;-95
2021/12/06 07:02:38;;;;;;;2.67;1.60;;;;;;;9.56;60.24;100092.66;4990843;28;20034;-95
2021/12/06 07:05:04;;;;;;;2.72;1.33;;;;;;;9.57;59.71;100096.09;4985677;28;20038;-95
2021/12/06 07:07:30;;;;;;;6.82;1.85;;;;;;;9.57;59.83;100096.09;4986067;28;20055;-95
2021/12/06 07:09:55;;;;;;;4.00;1.35;;;;;;;9.55;59.91;100093.56;4971885;28;20034;-96
2021/12/06 07:12:21;;;;;;;3.17;1.50;;;;;;;9.62;60.05;100092.22;4988051;28;20015;-96
2021/12/06 07:14:47;;;;;;;6.80;1.77;;;;;;;9.62;60.28;100091.38;4985921;28;20046;-95
2021/12/06 07:17:14;;;;;;;4.07;1.58;;;;;;;9.62;59.97;100080.91;4989819;28;20030;-96
2021/12/06 07:19:40;;;;;;;2.03;1.20;;;;;;;9.62;59.54;100079.13;4990549;28;20034;-96
2021/12/06 07:22:06;;;;;;;5.40;1.98;;;;;;;9.68;59.94;100077.84;4994782;28;20026;-96
2021/12/06 07:24:32;;;;;;;4.22;1.88;;;;;;;9.68;60.19;100083.09;4991246;28;20721;-96
2021/12/06 07:26:58;;;;;;;6.28;1.73;;;;;;;9.67;59.85;100081.41;4986651;28;20038;-95
2021/12/06 07:29:24;;;;;;;3.60;1.92;;;;;;;9.69;59.93;100069.84;4984847;28;20018;-94
2021/12/06 07:31:51;;;;;;;4.55;1.80;;;;;;;9.71;60.21;100067.97;4963100;28;20031;-95
2021/12/06 07:34:17;;;;;;;5.40;1.45;;;;;;;9.72;59.68;100066.22;4980933;28;20034;-95
2021/12/06 07:36:42;;;;;;;3.90;1.67;;;;;;;9.72;59.64;100063.59;4973993;28;20028;-96
2021/12/06 07:39:10;;;;;;;2.90;1.55;;;;;;;9.75;60.16;100058.09;4978520;28;20027;-96
2021/12/06 07:41:35;;;;;;;4.28;1.80;;;;;;;9.73;60.36;100052.13;4983400;28;20011;-95
2021/12/06 07:44:02;;;;;;;6.85;2.10;;;;;;;9.82;59.80;100037.56;4982162;28;20034;-94
2021/12/06 07:46:27;;;;;;;3.88;1.60;;;;;;;9.83;59.62;100034.81;4978220;28;20031;-93
2021/12/06 07:48:53;;;;;;;5.57;1.73;;;;;;;9.78;59.85;100021.19;5454888;22;20105;-96
2021/12/06 07:51:23;;;;;;;3.83;1.40;;;;;;;9.73;59.99;100007.56;5049371;22;20132;-95
2021/12/06 07:53:50;;;;;;;3.78;1.20;;;;;;;9.76;60.52;99991.63;5011617;28;20031;-96
2021/12/06 07:56:15;;;;;;;4.70;1.48;;;;;;;9.80;60.49;99998.34;4997777;28;20007;-94
2021/12/06 07:58:44;;;;;;;8.52;1.63;;;;;;;9.78;60.77;99989.75;5005070;28;20054;-96
2021/12/06 08:01:10;;;;;;;6.97;1.60;;;;;;;9.84;60.13;99970.13;4999621;28;20022;-94
2021/12/06 08:03:37;;;;;;;4.65;1.77;;;;;;;9.92;60.26;99984.34;5014169;28;20033;-92
2021/12/06 08:06:04;;;;;;;8.55;2.35;;;;;;;9.85;61.21;99983.13;5002033;28;20031;-94
2021/12/06 08:08:31;;;;;;;3.22;1.15;;;;;;;10.10;60.60;99981.34;5005972;28;20053;-94
2021/12/06 08:11:01;;;;;;;5.32;1.80;;;;;;;10.04;59.89;99985.22;4998887;28;20179;-93
2021/12/06 08:13:33;;;;;;;11.88;1.80;;;;;;;10.20;60.34;99984.97;4999899;28;20052;-95
2021/12/06 08:16:03;;;;;;;3.88;1.35;;;;;;;10.20;59.64;99995.44;4994850;28;20033;-95
2021/12/06 08:18:28;;;;;;;5.35;1.25;;;;;;;10.25;60.23;99995.97;5006747;28;20046;-95
2021/12/06 08:20:55;;;;;;;5.10;1.10;;;;;;;10.28;59.48;99998.34;4998055;28;20496;-96
2021/12/06 08:23:20;;;;;;;10.88;2.03;;;;;;;10.28;59.75;100003.59;4994867;28;20499;-93
2021/12/06 08:25:49;;;;;;;4.30;1.38;;;;;;;10.28;59.57;99990.47;4995014;28;20034;-93
2021/12/06 08:28:16;;;;;;;5.05;1.67;;;;;;;10.26;59.86;99984.50;4996314;28;20030;-94
2021/12/06 08:30:44;;;;;;;4.95;1.33;;;;;;;10.25;60.18;99967.09;4998399;28;20073;-95
2021/12/06 08:33:10;;;;;;;6.82;1.25;;;;;;;10.29;59.81;99972.97;4999758;28;20026;-95
2021/12/06 08:35:40;;;;;;;5.38;1.40;;;;;;;10.40;59.68;99969.56;4996215;28;20030;-93
2021/12/06 08:38:07;;;;;;;7.35;1.88;;;;;;;10.38;59.07;99967.06;4995060;28;20469;-92
2021/12/06 08:40:41;;;;;;;5.75;1.67;;;;;;;10.40;59.40;99952.03;5044075;22;20072;-95
2021/12/06 08:43:07;;;;;;;6.78;1.45;;;;;;;10.43;59.13;99945.72;4990894;28;20023;-96
2021/12/06 08:45:44;;;;;;;2.47;1.00;;;;;;;10.47;59.26;99941.94;4995853;28;20030;-94
2021/12/06 08:48:10;;;;;;;9.68;1.90;;;;;;;10.57;59.42;99942.91;4993217;28;20372;-94
2021/12/06 08:50:35;;;;;;;5.88;1.80;;;;;;;10.57;59.49;99940.28;4993122;28;20026;-92
2021/12/06 08:53:01;;;;;;;8.55;1.30;;;;;;;10.49;59.77;99925.09;4991159;28;20029;-91
2021/12/06 08:55:26;;;;;;;4.28;1.10;;;;;;;10.54;60.03;99931.78;4994125;28;20033;-92
2021/12/06 08:57:53;;;;;;;4.55;1.30;;;;;;;10.52;60.49;99921.41;4993175;28;20066;-92
2021/12/06 09:00:25;;;;;;;6.82;1.77;;;;;;;10.51;60.66;99909.25;4988581;28;20037;-96
2021/12/06 09:02:51;;;;;;;4.10;1.30;;;;;;;10.55;61.00;99900.19;4985167;28;20033;-96
2021/12/06 09:05:18;;;;;;;6.45;1.20;;;;;;;10.50;60.89;99891.81;4988341;28;20427;-92
2021/12/06 09:07:43;;;;;;;5.63;1.40;;;;;;;10.55;61.13;99879.19;4984931;28;20022;-96
2021/12/06 09:10:12;;;;;;;5.82;1.73;;;;;;;10.21;61.88;99865.97;4989994;28;20480;-95
2021/12/06 09:12:39;;;;;;;9.48;2.25;;;;;;;10.54;61.22;99867.00;4992060;28;20062;-90
2021/12/06 09:15:12;;;;;;;3.97;1.33;;;;;;;10.54;60.64;99871.41;4993422;28;20550;-91
2021/12/06 09:17:38;;;;;;;5.72;1.00;;;;;;;10.51;61.39;99875.94;4994338;28;20045;-93
2021/12/06 09:20:06;;;;;;;8.23;1.27;;;;;;;10.46;61.68;99859.69;4987195;28;20026;-90
2021/12/06 09:22:32;;;;;;;5.85;1.80;;;;;;;10.57;61.58;99850.19;4994714;28;20046;-94
2021/12/06 09:24:57;;;;;;;4.28;1.20;;;;;;;10.55;61.54;99837.19;4994574;28;20476;-93
2021/12/06 09:27:23;;;;;;;8.40;1.40;;;;;;;10.62;61.76;99843.59;4995061;28;20357;-91
2021/12/06 09:29:49;;;;;;;2.25;0.98;;;;;;;10.62;61.79;99822.59;4994540;28;20041;-92
2021/12/06 09:32:16;;;;;;;4.68;1.20;;;;;;;10.66;61.76;99808.31;4993623;28;20157;-92
2021/12/06 09:34:45;;;;;;;6.75;1.40;;;;;;;10.73;62.09;99802.59;4995175;28;20034;-94
2021/12/06 09:37:12;;;;;;;7.30;1.48;;;;;;;10.60;62.26;99808.75;4996363;28;20038;-95
2021/12/06 09:39:39;;;;;;;4.85;1.08;;;;;;;10.50;63.18;99792.91;4993954;28;20049;-94
2021/12/06 09:42:06;;;;;;;6.85;1.70;;;;;;;10.59;62.78;99775.59;5001005;28;20022;-95
2021/12/06 09:44:31;;;;;;;5.63;1.48;;;;;;;10.38;64.12;99782.50;5002238;28;20031;-96
2021/12/06 09:46:56;;;;;;;6.45;1.92;;;;;;;10.28;64.30;99783.19;5002445;28;20110;-96
2021/12/06 09:49:23;;;;;;;6.68;1.50;;;;;;;10.30;64.82;99770.81;5001424;28;20038;-96
2021/12/06 09:51:53;;;;;;;3.90;1.63;;;;;;;10.19;64.88;99757.66;4997203;28;20030;-96
2021/12/06 10:07:13;;;;;;;10.13;1.88;;;;;;;10.17;66.74;99701.00;5043531;28;20029;-96
2021/12/06 10:09:40;;;;;;;3.85;1.40;;;;;;;10.20;66.63;99706.03;5049226;28;20025;-95
2021/12/06 10:12:07;;;;;;;7.78;1.63;;;;;;;10.43;66.38;99697.22;5043159;28;20021;-96
2021/12/06 10:14:35;;;;;;;4.63;1.63;;;;;;;10.44;66.53;99658.69;5034825;28;20033;-95
2021/12/06 10:17:01;;;;;;;6.32;1.60;;;;;;;9.89;68.57;99685.63;5030353;28;20034;-96
2021/12/06 10:19:27;;;;;;;4.55;1.77;;;;;;;10.20;67.43;99666.69;5031989;28;20018;-96
2021/12/06 10:21:53;;;;;;;7.80;2.10;;;;;;;10.38;67.18;99656.56;5027064;28;20373;-96
2021/12/06 10:24:22;;;;;;;8.95;2.38;;;;;;;10.61;66.49;99668.69;5043537;28;20037;-95
2021/12/06 10:26:48;;;;;;;7.65;1.80;;;;;;;10.41;66.83;99651.91;5026658;28;20049;-96
2021/12/06 10:29:22;;;;;;;7.55;1.30;;;;;;;10.41;67.40;99653.69;5062559;22;20441;-96
2021/12/06 10:31:54;;;;;;;7.72;1.23;;;;;;;10.54;66.90;99636.00;5001782;28;20007;-96
2021/12/06 10:34:27;;;;;;;7.03;1.30;;;;;;;10.57;67.33;99630.50;5073705;22;20104;-95
2021/12/06 10:36:54;;;;;;;8.63;1.50;;;;;;;10.17;68.98;99619.69;5026506;28;20068;-96
2021/12/06 10:39:22;;;;;;;7.82;1.25;;;;;;;10.12;69.93;99625.31;5030998;28;20018;-96
2021/12/06 10:41:50;;;;;;;9.60;1.58;;;;;;;10.36;69.49;99627.81;5038950;28;20037;-92
2021/12/06 10:44:16;;;;;;;4.13;1.58;;;;;;;10.44;68.69;99627.19;5009005;28;20073;-96
2021/12/06 10:46:49;;;;;;;6.90;1.17;;;;;;;10.30;69.29;99620.41;5006699;28;20025;-95
2021/12/06 10:49:18;;;;;;;7.22;1.80;;;;;;;10.45;68.90;99616.59;5014537;28;20068;-95
2021/12/06 10:54:30;;;;;;;6.63;2.83;;;;;;;10.42;69.43;99610.75;4976645;28;20047;-93
2021/12/06 10:56:59;;;;;;;5.72;2.75;;;;;;;10.37;69.55;99587.50;4972788;28;20269;-96
2021/12/06 10:59:33;;;;;;;4.13;1.00;;;;;;;10.55;69.44;99594.84;4977975;28;20114;-96
2021/12/06 11:02:06;;;;;;;4.13;1.33;;;;;;;10.63;68.96;99595.88;4976680;28;20473;-94
2021/12/06 11:04:32;;;;;;;3.45;1.63;;;;;;;10.92;68.64;99587.44;4970837;28;20041;-96
2021/12/06 11:07:05;;;;;;;5.60;1.52;;;;;;;10.74;68.44;99575.78;5054545;23;20030;-94
2021/12/06 11:09:34;;;;;;;3.53;1.50;;;;;;;11.09;67.71;99581.59;5123081;22;20072;-96
2021/12/06 11:14:36;;;;;;;7.35;1.55;;;;;;;10.98;68.55;99562.44;5699625;22;20051;-96
2021/12/06 11:17:05;;;;;;;6.45;1.10;;;;;;;10.90;69.17;99548.16;5498497;22;20057;-95
2021/12/06 11:19:31;;;;;;;14.25;1.40;;;;;;;11.02;69.87;99571.72;5048729;28;20044;-94
2021/12/06 11:22:01;;;;;;;5.45;1.60;;;;;;;11.31;69.31;99566.66;5042145;28;20085;-94
2021/12/06 11:24:32;;;;;;;5.60;1.60;;;;;;;11.11;70.81;99560.44;5032070;28;20025;-95
2021/12/06 11:27:04;;;;;;;5.68;1.10;;;;;;;11.32;70.13;99545.50;5014744;28;20033;-95
2021/12/06 11:29:37;;;;;;;2.90;1.00;;;;;;;11.61;69.49;99542.19;5014565;28;20076;-93
2021/12/06 11:32:10;;;;;;;6.22;1.35;;;;;;;11.53;70.22;99557.78;5016904;28;20033;-92
2021/12/06 11:34:44;;;;;;;4.45;1.20;;;;;;;11.93;69.30;99545.66;5173982;22;20110;-96
2021/12/06 11:37:30;;;;;;;6.25;1.02;;;;;;;11.81;69.63;99527.31;5368023;22;20021;-96
2021/12/06 11:45:30;;;;;;;4.30;1.00;;;;;;;12.21;68.72;99509.84;5292312;23;20049;-96
2021/12/06 11:48:07;;;;;;;4.28;1.00;;;;;;;11.99;69.21;99508.31;5035174;28;20020;-96
2021/12/06 12:33:33;;;;;;;7.68;1.70;;;;;;;12.85;65.97;99511.09;5276910;23;20465;-96
2021/12/06 12:36:07;;;;;;;8.93;1.52;;;;;;;13.03;65.96;99517.31;4953363;29;20094;-95
2021/12/06 12:38:34;;;;;;;18.45;2.78;;;;;;;12.84;66.24;99491.00;5030404;23;20039;-96
2021/12/06 12:51:30;;;;;;;12.93;2.17;;;;;;;13.08;64.77;99496.63;4210812;23;20537;-96
2021/12/06 12:54:07;;;;;;;12.02;2.03;;;;;;;13.12;64.62;99486.63;4939398;29;20036;-96
2021/12/06 12:56:38;;;;;;;16.27;2.85;;;;;;;13.15;64.57;99485.50;4938549;29;20032;-95
2021/12/06 12:59:42;;;;;;;11.60;2.28;;;;;;;13.42;64.27;99480.31;4937530;29;20036;-96
2021/12/06 13:02:24;;;;;;;13.88;2.47;;;;;;;13.52;63.58;99488.19;4938595;29;20067;-96
2021/12/06 13:04:59;;;;;;;11.82;3.08;;;;;;;13.43;63.89;99489.88;4941422;29;20032;-93
2021/12/06 13:07:29;;;;;;;13.18;2.28;;;;;;;13.36;63.42;99477.44;4938982;29;20024;-96
2021/12/06 13:09:57;;;;;;;15.23;2.05;;;;;;;13.45;64.12;99487.13;4940578;29;20110;-95
2021/12/06 13:12:24;;;;;;;12.48;2.00;;;;;;;13.49;63.97;99494.59;4940699;29;20028;-95